sensor_id;sensor_type;location;lat;lon;timestamp;P1;durP1;ratioP1;P2;durP2;ratioP2
60416;SDS011;46263;44.726;10.396;2024-01-30T00:00:42;24.95;;;11.25;;
60416;SDS011;46263;44.726;10.396;2024-01-30T00:03:08;23.67;;;11.65;;
60416;SDS011;46263;44.726;10.396;2024-01-30T00:05:33;23.17;;;11.73;;
60416;SDS011;46263;44.726;10.396;2024-01-30T00:07:59;23.83;;;11.90;;
60416;SDS011;46263;44.726;10.396;2024-01-30T00:10:24;24.58;;;11.20;;
60416;SDS011;46263;44.726;10.396;2024-01-30T00:12:50;22.02;;;11.38;;
60416;SDS011;46263;44.726;10.396;2024-01-30T00:15:15;26.15;;;12.60;;
60416;SDS011;46263;44.726;10.396;2024-01-30T00:17:41;21.98;;;11.27;;
60416;SDS011;46263;44.726;10.396;2024-01-30T00:20:06;23.92;;;12.65;;
60416;SDS011;46263;44.726;10.396;2024-01-30T00:22:34;23.10;;;11.15;;
60416;SDS011;46263;44.726;10.396;2024-01-30T00:24:59;22.08;;;11.85;;
60416;SDS011;46263;44.726;10.396;2024-01-30T00:27:25;23.48;;;11.60;;
60416;SDS011;46263;44.726;10.396;2024-01-30T00:29:51;25.50;;;11.15;;
60416;SDS011;46263;44.726;10.396;2024-01-30T00:32:17;21.98;;;10.90;;
60416;SDS011;46263;44.726;10.396;2024-01-30T00:34:44;21.40;;;11.85;;
60416;SDS011;46263;44.726;10.396;2024-01-30T00:37:09;26.23;;;12.23;;
60416;SDS011;46263;44.726;10.396;2024-01-30T00:39:35;22.40;;;10.85;;
60416;SDS011;46263;44.726;10.396;2024-01-30T00:42:00;22.42;;;11.05;;
60416;SDS011;46263;44.726;10.396;2024-01-30T00:44:26;26.30;;;11.93;;
60416;SDS011;46263;44.726;10.396;2024-01-30T00:46:51;27.50;;;12.63;;
60416;SDS011;46263;44.726;10.396;2024-01-30T00:49:17;22.75;;;12.65;;
60416;SDS011;46263;44.726;10.396;2024-01-30T00:51:42;30.02;;;13.02;;
60416;SDS011;46263;44.726;10.396;2024-01-30T00:54:07;23.17;;;12.60;;
60416;SDS011;46263;44.726;10.396;2024-01-30T00:56:33;31.25;;;14.15;;
60416;SDS011;46263;44.726;10.396;2024-01-30T00:58:59;32.13;;;15.65;;
60416;SDS011;46263;44.726;10.396;2024-01-30T01:01:24;33.70;;;16.73;;
60416;SDS011;46263;44.726;10.396;2024-01-30T01:03:50;34.17;;;16.88;;
60416;SDS011;46263;44.726;10.396;2024-01-30T01:06:15;36.10;;;16.13;;
60416;SDS011;46263;44.726;10.396;2024-01-30T01:08:41;33.97;;;15.90;;
60416;SDS011;46263;44.726;10.396;2024-01-30T01:11:06;38.03;;;16.77;;
60416;SDS011;46263;44.726;10.396;2024-01-30T01:13:31;32.45;;;15.05;;
60416;SDS011;46263;44.726;10.396;2024-01-30T01:15:57;37.58;;;16.42;;
60416;SDS011;46263;44.726;10.396;2024-01-30T01:18:22;36.05;;;16.02;;
60416;SDS011;46263;44.726;10.396;2024-01-30T01:20:48;37.22;;;16.17;;
60416;SDS011;46263;44.726;10.396;2024-01-30T01:23:14;37.92;;;15.27;;
60416;SDS011;46263;44.726;10.396;2024-01-30T01:25:39;37.95;;;16.27;;
60416;SDS011;46263;44.726;10.396;2024-01-30T01:28:05;29.35;;;13.88;;
60416;SDS011;46263;44.726;10.396;2024-01-30T01:30:30;29.08;;;14.07;;
60416;SDS011;46263;44.726;10.396;2024-01-30T01:32:56;29.60;;;14.65;;
60416;SDS011;46263;44.726;10.396;2024-01-30T01:35:23;25.92;;;12.95;;
60416;SDS011;46263;44.726;10.396;2024-01-30T01:37:54;26.83;;;12.98;;
60416;SDS011;46263;44.726;10.396;2024-01-30T01:40:23;30.63;;;14.27;;
60416;SDS011;46263;44.726;10.396;2024-01-30T01:42:52;28.25;;;13.60;;
60416;SDS011;46263;44.726;10.396;2024-01-30T01:45:19;22.08;;;13.07;;
60416;SDS011;46263;44.726;10.396;2024-01-30T01:47:45;30.60;;;14.20;;
60416;SDS011;46263;44.726;10.396;2024-01-30T01:50:15;29.40;;;13.55;;
60416;SDS011;46263;44.726;10.396;2024-01-30T01:52:44;26.30;;;13.73;;
60416;SDS011;46263;44.726;10.396;2024-01-30T01:55:14;26.40;;;13.20;;
60416;SDS011;46263;44.726;10.396;2024-01-30T01:57:42;27.10;;;12.80;;
60416;SDS011;46263;44.726;10.396;2024-01-30T02:00:08;25.02;;;12.70;;
60416;SDS011;46263;44.726;10.396;2024-01-30T02:02:35;24.75;;;12.50;;
60416;SDS011;46263;44.726;10.396;2024-01-30T02:05:02;24.00;;;13.75;;
60416;SDS011;46263;44.726;10.396;2024-01-30T02:07:29;23.88;;;13.63;;
60416;SDS011;46263;44.726;10.396;2024-01-30T02:09:55;28.98;;;13.88;;
60416;SDS011;46263;44.726;10.396;2024-01-30T02:12:20;28.80;;;13.50;;
60416;SDS011;46263;44.726;10.396;2024-01-30T02:14:46;25.05;;;13.60;;
60416;SDS011;46263;44.726;10.396;2024-01-30T02:17:13;23.80;;;12.98;;
60416;SDS011;46263;44.726;10.396;2024-01-30T02:19:39;26.27;;;14.02;;
60416;SDS011;46263;44.726;10.396;2024-01-30T02:22:05;24.55;;;12.93;;
60416;SDS011;46263;44.726;10.396;2024-01-30T02:24:30;24.70;;;13.10;;
60416;SDS011;46263;44.726;10.396;2024-01-30T02:26:56;23.48;;;13.45;;
60416;SDS011;46263;44.726;10.396;2024-01-30T02:29:22;23.15;;;12.43;;
60416;SDS011;46263;44.726;10.396;2024-01-30T02:31:47;27.45;;;13.40;;
60416;SDS011;46263;44.726;10.396;2024-01-30T02:34:13;20.35;;;11.95;;
60416;SDS011;46263;44.726;10.396;2024-01-30T02:36:42;27.50;;;13.13;;
60416;SDS011;46263;44.726;10.396;2024-01-30T02:39:08;19.73;;;12.07;;
60416;SDS011;46263;44.726;10.396;2024-01-30T02:41:33;21.20;;;12.25;;
60416;SDS011;46263;44.726;10.396;2024-01-30T02:43:59;23.65;;;12.32;;
60416;SDS011;46263;44.726;10.396;2024-01-30T02:46:24;23.38;;;13.45;;
60416;SDS011;46263;44.726;10.396;2024-01-30T02:48:50;21.55;;;12.15;;
60416;SDS011;46263;44.726;10.396;2024-01-30T02:51:15;21.25;;;12.00;;
60416;SDS011;46263;44.726;10.396;2024-01-30T02:53:41;18.83;;;11.65;;
60416;SDS011;46263;44.726;10.396;2024-01-30T02:56:07;21.92;;;12.48;;
60416;SDS011;46263;44.726;10.396;2024-01-30T02:58:38;20.48;;;12.15;;
60416;SDS011;46263;44.726;10.396;2024-01-30T03:01:04;19.67;;;11.88;;
60416;SDS011;46263;44.726;10.396;2024-01-30T03:03:30;20.48;;;12.45;;
60416;SDS011;46263;44.726;10.396;2024-01-30T03:05:55;24.48;;;11.90;;
60416;SDS011;46263;44.726;10.396;2024-01-30T03:08:21;23.60;;;12.32;;
60416;SDS011;46263;44.726;10.396;2024-01-30T03:10:46;25.23;;;12.55;;
60416;SDS011;46263;44.726;10.396;2024-01-30T03:13:12;21.55;;;11.98;;
60416;SDS011;46263;44.726;10.396;2024-01-30T03:15:37;19.80;;;12.10;;
60416;SDS011;46263;44.726;10.396;2024-01-30T03:18:03;22.05;;;12.05;;
60416;SDS011;46263;44.726;10.396;2024-01-30T03:20:31;26.35;;;13.40;;
60416;SDS011;46263;44.726;10.396;2024-01-30T03:22:57;23.63;;;13.13;;
60416;SDS011;46263;44.726;10.396;2024-01-30T03:25:24;22.75;;;12.45;;
60416;SDS011;46263;44.726;10.396;2024-01-30T03:27:50;22.08;;;12.60;;
60416;SDS011;46263;44.726;10.396;2024-01-30T03:30:15;21.00;;;10.52;;
60416;SDS011;46263;44.726;10.396;2024-01-30T03:32:40;20.90;;;10.70;;
60416;SDS011;46263;44.726;10.396;2024-01-30T03:35:06;19.48;;;9.73;;
60416;SDS011;46263;44.726;10.396;2024-01-30T03:37:32;19.33;;;9.95;;
60416;SDS011;46263;44.726;10.396;2024-01-30T03:39:57;19.15;;;9.70;;
60416;SDS011;46263;44.726;10.396;2024-01-30T03:42:23;19.50;;;9.50;;
60416;SDS011;46263;44.726;10.396;2024-01-30T03:44:48;15.68;;;8.57;;
60416;SDS011;46263;44.726;10.396;2024-01-30T03:47:17;18.90;;;10.18;;
60416;SDS011;46263;44.726;10.396;2024-01-30T03:49:42;17.40;;;9.55;;
60416;SDS011;46263;44.726;10.396;2024-01-30T03:52:08;16.98;;;9.48;;
60416;SDS011;46263;44.726;10.396;2024-01-30T03:54:33;18.52;;;9.95;;
60416;SDS011;46263;44.726;10.396;2024-01-30T03:56:58;17.30;;;9.95;;
60416;SDS011;46263;44.726;10.396;2024-01-30T03:59:24;22.65;;;10.00;;
60416;SDS011;46263;44.726;10.396;2024-01-30T04:01:50;18.83;;;9.13;;
60416;SDS011;46263;44.726;10.396;2024-01-30T04:04:18;16.45;;;8.90;;
60416;SDS011;46263;44.726;10.396;2024-01-30T04:06:44;18.60;;;9.55;;
60416;SDS011;46263;44.726;10.396;2024-01-30T04:09:10;16.83;;;8.98;;
60416;SDS011;46263;44.726;10.396;2024-01-30T04:11:36;19.02;;;9.80;;
60416;SDS011;46263;44.726;10.396;2024-01-30T04:14:01;17.77;;;9.80;;
60416;SDS011;46263;44.726;10.396;2024-01-30T04:16:28;16.95;;;9.95;;
60416;SDS011;46263;44.726;10.396;2024-01-30T04:18:54;17.42;;;10.15;;
60416;SDS011;46263;44.726;10.396;2024-01-30T04:21:20;16.73;;;9.68;;
60416;SDS011;46263;44.726;10.396;2024-01-30T04:23:46;17.48;;;9.75;;
60416;SDS011;46263;44.726;10.396;2024-01-30T04:26:12;18.70;;;10.13;;
60416;SDS011;46263;44.726;10.396;2024-01-30T04:28:37;16.13;;;9.15;;
60416;SDS011;46263;44.726;10.396;2024-01-30T04:31:03;15.65;;;8.68;;
60416;SDS011;46263;44.726;10.396;2024-01-30T04:33:28;17.58;;;9.88;;
60416;SDS011;46263;44.726;10.396;2024-01-30T04:35:54;15.90;;;9.32;;
60416;SDS011;46263;44.726;10.396;2024-01-30T04:38:19;18.60;;;9.88;;
60416;SDS011;46263;44.726;10.396;2024-01-30T04:40:44;20.45;;;10.98;;
60416;SDS011;46263;44.726;10.396;2024-01-30T04:43:10;20.70;;;10.35;;
60416;SDS011;46263;44.726;10.396;2024-01-30T04:45:35;19.67;;;10.00;;
60416;SDS011;46263;44.726;10.396;2024-01-30T04:48:01;19.55;;;9.60;;
60416;SDS011;46263;44.726;10.396;2024-01-30T04:50:26;16.65;;;9.13;;
60416;SDS011;46263;44.726;10.396;2024-01-30T04:52:52;19.35;;;9.70;;
60416;SDS011;46263;44.726;10.396;2024-01-30T04:55:17;15.90;;;10.10;;
60416;SDS011;46263;44.726;10.396;2024-01-30T04:57:43;17.73;;;9.27;;
60416;SDS011;46263;44.726;10.396;2024-01-30T05:00:09;13.77;;;9.18;;
60416;SDS011;46263;44.726;10.396;2024-01-30T05:02:35;19.00;;;9.88;;
60416;SDS011;46263;44.726;10.396;2024-01-30T05:05:00;15.85;;;8.93;;
60416;SDS011;46263;44.726;10.396;2024-01-30T05:07:26;20.80;;;11.05;;
60416;SDS011;46263;44.726;10.396;2024-01-30T05:09:51;20.60;;;10.40;;
60416;SDS011;46263;44.726;10.396;2024-01-30T05:12:17;13.07;;;8.52;;
60416;SDS011;46263;44.726;10.396;2024-01-30T05:14:42;22.35;;;10.95;;
60416;SDS011;46263;44.726;10.396;2024-01-30T05:17:07;19.75;;;9.98;;
60416;SDS011;46263;44.726;10.396;2024-01-30T05:19:35;14.48;;;8.88;;
60416;SDS011;46263;44.726;10.396;2024-01-30T05:22:00;17.60;;;10.15;;
60416;SDS011;46263;44.726;10.396;2024-01-30T05:24:26;17.63;;;10.18;;
60416;SDS011;46263;44.726;10.396;2024-01-30T05:26:52;15.60;;;9.18;;
60416;SDS011;46263;44.726;10.396;2024-01-30T05:29:17;15.18;;;8.85;;
60416;SDS011;46263;44.726;10.396;2024-01-30T05:31:43;19.60;;;9.77;;
60416;SDS011;46263;44.726;10.396;2024-01-30T05:34:08;13.18;;;8.25;;
60416;SDS011;46263;44.726;10.396;2024-01-30T05:36:34;14.90;;;8.50;;
60416;SDS011;46263;44.726;10.396;2024-01-30T05:39:00;17.73;;;8.65;;
60416;SDS011;46263;44.726;10.396;2024-01-30T05:41:25;15.95;;;8.45;;
60416;SDS011;46263;44.726;10.396;2024-01-30T05:43:51;16.08;;;8.73;;
60416;SDS011;46263;44.726;10.396;2024-01-30T05:46:16;11.63;;;8.82;;
60416;SDS011;46263;44.726;10.396;2024-01-30T05:48:42;16.23;;;9.30;;
60416;SDS011;46263;44.726;10.396;2024-01-30T05:51:07;13.05;;;8.98;;
60416;SDS011;46263;44.726;10.396;2024-01-30T05:53:33;13.30;;;8.88;;
60416;SDS011;46263;44.726;10.396;2024-01-30T05:56:00;14.82;;;8.50;;
60416;SDS011;46263;44.726;10.396;2024-01-30T05:58:26;14.20;;;8.43;;
60416;SDS011;46263;44.726;10.396;2024-01-30T06:00:52;15.18;;;8.52;;
60416;SDS011;46263;44.726;10.396;2024-01-30T06:03:17;14.65;;;9.10;;
60416;SDS011;46263;44.726;10.396;2024-01-30T06:05:43;18.45;;;9.40;;
60416;SDS011;46263;44.726;10.396;2024-01-30T06:08:08;14.20;;;8.55;;
60416;SDS011;46263;44.726;10.396;2024-01-30T06:10:34;16.02;;;9.15;;
60416;SDS011;46263;44.726;10.396;2024-01-30T06:12:59;13.75;;;8.05;;
60416;SDS011;46263;44.726;10.396;2024-01-30T06:15:25;17.88;;;10.30;;
60416;SDS011;46263;44.726;10.396;2024-01-30T06:17:51;14.40;;;8.52;;
60416;SDS011;46263;44.726;10.396;2024-01-30T06:20:16;18.50;;;8.95;;
60416;SDS011;46263;44.726;10.396;2024-01-30T06:22:41;15.75;;;9.70;;
60416;SDS011;46263;44.726;10.396;2024-01-30T06:25:07;13.98;;;8.73;;
60416;SDS011;46263;44.726;10.396;2024-01-30T06:27:33;15.40;;;9.55;;
60416;SDS011;46263;44.726;10.396;2024-01-30T06:29:58;18.58;;;9.30;;
60416;SDS011;46263;44.726;10.396;2024-01-30T06:32:23;17.88;;;10.18;;
60416;SDS011;46263;44.726;10.396;2024-01-30T06:34:49;13.70;;;9.45;;
60416;SDS011;46263;44.726;10.396;2024-01-30T06:37:15;16.48;;;9.82;;
60416;SDS011;46263;44.726;10.396;2024-01-30T06:39:40;13.35;;;9.13;;
60416;SDS011;46263;44.726;10.396;2024-01-30T06:42:06;14.07;;;8.88;;
60416;SDS011;46263;44.726;10.396;2024-01-30T06:44:31;14.38;;;9.80;;
60416;SDS011;46263;44.726;10.396;2024-01-30T06:46:56;16.48;;;9.45;;
60416;SDS011;46263;44.726;10.396;2024-01-30T06:49:22;15.75;;;10.05;;
60416;SDS011;46263;44.726;10.396;2024-01-30T06:51:47;15.05;;;9.65;;
60416;SDS011;46263;44.726;10.396;2024-01-30T06:54:13;28.02;;;17.30;;
60416;SDS011;46263;44.726;10.396;2024-01-30T06:56:39;19.25;;;10.02;;
60416;SDS011;46263;44.726;10.396;2024-01-30T06:59:04;18.92;;;9.95;;
60416;SDS011;46263;44.726;10.396;2024-01-30T07:01:30;14.57;;;9.07;;
60416;SDS011;46263;44.726;10.396;2024-01-30T07:03:55;14.38;;;9.05;;
60416;SDS011;46263;44.726;10.396;2024-01-30T07:06:22;16.25;;;9.35;;
60416;SDS011;46263;44.726;10.396;2024-01-30T07:08:48;15.15;;;9.70;;
60416;SDS011;46263;44.726;10.396;2024-01-30T07:11:20;15.75;;;9.02;;
60416;SDS011;46263;44.726;10.396;2024-01-30T07:13:47;17.75;;;9.93;;
60416;SDS011;46263;44.726;10.396;2024-01-30T07:16:13;15.70;;;9.18;;
60416;SDS011;46263;44.726;10.396;2024-01-30T07:18:39;15.82;;;8.85;;
60416;SDS011;46263;44.726;10.396;2024-01-30T07:21:05;19.30;;;10.43;;
60416;SDS011;46263;44.726;10.396;2024-01-30T07:23:30;17.02;;;10.15;;
60416;SDS011;46263;44.726;10.396;2024-01-30T07:25:56;16.10;;;9.60;;
60416;SDS011;46263;44.726;10.396;2024-01-30T07:28:21;14.93;;;8.57;;
60416;SDS011;46263;44.726;10.396;2024-01-30T07:30:47;17.67;;;9.23;;
60416;SDS011;46263;44.726;10.396;2024-01-30T07:33:13;17.70;;;9.48;;
60416;SDS011;46263;44.726;10.396;2024-01-30T07:35:39;17.73;;;10.25;;
60416;SDS011;46263;44.726;10.396;2024-01-30T07:38:04;13.75;;;8.70;;
60416;SDS011;46263;44.726;10.396;2024-01-30T07:40:30;15.57;;;9.65;;
60416;SDS011;46263;44.726;10.396;2024-01-30T07:42:55;16.48;;;10.45;;
60416;SDS011;46263;44.726;10.396;2024-01-30T07:45:21;16.75;;;9.35;;
60416;SDS011;46263;44.726;10.396;2024-01-30T07:47:50;16.52;;;9.55;;
60416;SDS011;46263;44.726;10.396;2024-01-30T07:50:16;14.60;;;8.90;;
60416;SDS011;46263;44.726;10.396;2024-01-30T07:52:42;18.23;;;9.90;;
60416;SDS011;46263;44.726;10.396;2024-01-30T07:55:08;14.73;;;9.45;;
60416;SDS011;46263;44.726;10.396;2024-01-30T07:57:34;17.40;;;9.70;;
60416;SDS011;46263;44.726;10.396;2024-01-30T08:00:02;20.17;;;10.50;;
60416;SDS011;46263;44.726;10.396;2024-01-30T08:02:28;14.65;;;9.82;;
60416;SDS011;46263;44.726;10.396;2024-01-30T08:04:53;17.45;;;10.32;;
60416;SDS011;46263;44.726;10.396;2024-01-30T08:07:19;16.33;;;9.40;;
60416;SDS011;46263;44.726;10.396;2024-01-30T08:09:46;16.15;;;8.98;;
60416;SDS011;46263;44.726;10.396;2024-01-30T08:12:12;15.73;;;9.05;;
60416;SDS011;46263;44.726;10.396;2024-01-30T08:14:38;14.68;;;8.65;;
60416;SDS011;46263;44.726;10.396;2024-01-30T08:17:04;16.90;;;9.70;;
60416;SDS011;46263;44.726;10.396;2024-01-30T08:19:30;16.05;;;9.00;;
60416;SDS011;46263;44.726;10.396;2024-01-30T08:21:55;16.60;;;9.95;;
60416;SDS011;46263;44.726;10.396;2024-01-30T08:24:21;15.32;;;9.10;;
60416;SDS011;46263;44.726;10.396;2024-01-30T08:26:46;15.07;;;9.77;;
60416;SDS011;46263;44.726;10.396;2024-01-30T08:29:12;16.55;;;9.80;;
60416;SDS011;46263;44.726;10.396;2024-01-30T08:31:37;14.95;;;9.65;;
60416;SDS011;46263;44.726;10.396;2024-01-30T08:34:02;14.90;;;9.43;;
60416;SDS011;46263;44.726;10.396;2024-01-30T08:36:28;15.18;;;9.95;;
60416;SDS011;46263;44.726;10.396;2024-01-30T08:38:53;20.48;;;9.43;;
60416;SDS011;46263;44.726;10.396;2024-01-30T08:41:19;17.00;;;9.75;;
60416;SDS011;46263;44.726;10.396;2024-01-30T08:43:44;17.13;;;9.85;;
60416;SDS011;46263;44.726;10.396;2024-01-30T08:46:10;16.95;;;10.20;;
60416;SDS011;46263;44.726;10.396;2024-01-30T08:48:36;17.33;;;9.45;;
60416;SDS011;46263;44.726;10.396;2024-01-30T08:51:01;21.75;;;9.85;;
60416;SDS011;46263;44.726;10.396;2024-01-30T08:53:27;16.73;;;10.77;;
60416;SDS011;46263;44.726;10.396;2024-01-30T08:55:52;16.70;;;9.95;;
60416;SDS011;46263;44.726;10.396;2024-01-30T08:58:18;18.42;;;9.60;;
60416;SDS011;46263;44.726;10.396;2024-01-30T09:00:44;19.55;;;10.52;;
60416;SDS011;46263;44.726;10.396;2024-01-30T09:03:10;16.63;;;9.50;;
60416;SDS011;46263;44.726;10.396;2024-01-30T09:05:35;22.58;;;10.43;;
60416;SDS011;46263;44.726;10.396;2024-01-30T09:08:00;17.05;;;9.98;;
60416;SDS011;46263;44.726;10.396;2024-01-30T09:10:26;15.95;;;10.65;;
60416;SDS011;46263;44.726;10.396;2024-01-30T09:12:51;16.67;;;10.90;;
60416;SDS011;46263;44.726;10.396;2024-01-30T09:15:17;17.50;;;9.82;;
60416;SDS011;46263;44.726;10.396;2024-01-30T09:17:44;17.70;;;10.50;;
60416;SDS011;46263;44.726;10.396;2024-01-30T09:20:09;16.02;;;10.18;;
60416;SDS011;46263;44.726;10.396;2024-01-30T09:22:35;16.08;;;9.90;;
60416;SDS011;46263;44.726;10.396;2024-01-30T09:25:01;19.42;;;11.15;;
60416;SDS011;46263;44.726;10.396;2024-01-30T09:27:26;18.45;;;10.10;;
60416;SDS011;46263;44.726;10.396;2024-01-30T09:29:52;19.67;;;10.57;;
60416;SDS011;46263;44.726;10.396;2024-01-30T09:32:17;13.98;;;9.43;;
60416;SDS011;46263;44.726;10.396;2024-01-30T09:34:43;17.45;;;10.52;;
60416;SDS011;46263;44.726;10.396;2024-01-30T09:37:09;20.00;;;10.63;;
60416;SDS011;46263;44.726;10.396;2024-01-30T09:39:34;20.35;;;10.45;;
60416;SDS011;46263;44.726;10.396;2024-01-30T09:42:11;18.58;;;10.55;;
60416;SDS011;46263;44.726;10.396;2024-01-30T09:44:39;17.80;;;10.38;;
60416;SDS011;46263;44.726;10.396;2024-01-30T09:47:08;15.80;;;9.23;;
60416;SDS011;46263;44.726;10.396;2024-01-30T09:49:35;16.05;;;9.90;;
60416;SDS011;46263;44.726;10.396;2024-01-30T09:52:05;15.45;;;9.63;;
60416;SDS011;46263;44.726;10.396;2024-01-30T09:54:31;14.13;;;10.55;;
60416;SDS011;46263;44.726;10.396;2024-01-30T09:56:58;20.08;;;9.82;;
60416;SDS011;46263;44.726;10.396;2024-01-30T09:59:23;12.75;;;8.73;;
60416;SDS011;46263;44.726;10.396;2024-01-30T10:01:50;17.38;;;9.85;;
60416;SDS011;46263;44.726;10.396;2024-01-30T10:04:16;17.27;;;9.93;;
60416;SDS011;46263;44.726;10.396;2024-01-30T10:06:41;18.50;;;10.65;;
60416;SDS011;46263;44.726;10.396;2024-01-30T10:09:07;16.17;;;9.93;;
60416;SDS011;46263;44.726;10.396;2024-01-30T10:11:33;16.23;;;9.55;;
60416;SDS011;46263;44.726;10.396;2024-01-30T10:13:59;20.73;;;11.18;;
60416;SDS011;46263;44.726;10.396;2024-01-30T10:16:25;15.15;;;9.63;;
60416;SDS011;46263;44.726;10.396;2024-01-30T10:18:51;15.90;;;10.23;;
60416;SDS011;46263;44.726;10.396;2024-01-30T10:21:17;17.15;;;10.15;;
60416;SDS011;46263;44.726;10.396;2024-01-30T10:23:43;16.70;;;9.57;;
60416;SDS011;46263;44.726;10.396;2024-01-30T10:26:09;16.48;;;10.43;;
60416;SDS011;46263;44.726;10.396;2024-01-30T10:28:35;15.88;;;10.23;;
60416;SDS011;46263;44.726;10.396;2024-01-30T10:31:00;19.40;;;10.82;;
60416;SDS011;46263;44.726;10.396;2024-01-30T10:33:27;19.73;;;11.50;;
60416;SDS011;46263;44.726;10.396;2024-01-30T10:35:54;30.27;;;11.50;;
60416;SDS011;46263;44.726;10.396;2024-01-30T10:38:25;29.15;;;12.48;;
60416;SDS011;46263;44.726;10.396;2024-01-30T10:40:56;24.95;;;11.95;;
60416;SDS011;46263;44.726;10.396;2024-01-30T10:43:22;21.92;;;11.88;;
60416;SDS011;46263;44.726;10.396;2024-01-30T10:45:49;20.77;;;11.80;;
60416;SDS011;46263;44.726;10.396;2024-01-30T10:48:18;24.42;;;12.73;;
60416;SDS011;46263;44.726;10.396;2024-01-30T10:50:50;22.23;;;12.43;;
60416;SDS011;46263;44.726;10.396;2024-01-30T10:53:19;24.63;;;12.43;;
60416;SDS011;46263;44.726;10.396;2024-01-30T10:55:44;24.85;;;13.57;;
60416;SDS011;46263;44.726;10.396;2024-01-30T10:58:12;23.92;;;12.60;;
60416;SDS011;46263;44.726;10.396;2024-01-30T11:00:39;25.10;;;14.43;;
60416;SDS011;46263;44.726;10.396;2024-01-30T11:03:06;31.85;;;16.13;;
60416;SDS011;46263;44.726;10.396;2024-01-30T11:05:32;29.48;;;15.60;;
60416;SDS011;46263;44.726;10.396;2024-01-30T11:07:58;28.90;;;14.00;;
60416;SDS011;46263;44.726;10.396;2024-01-30T11:10:24;25.85;;;13.93;;
60416;SDS011;46263;44.726;10.396;2024-01-30T11:12:50;32.25;;;14.40;;
60416;SDS011;46263;44.726;10.396;2024-01-30T11:15:16;29.55;;;14.40;;
60416;SDS011;46263;44.726;10.396;2024-01-30T11:17:43;30.02;;;15.50;;
60416;SDS011;46263;44.726;10.396;2024-01-30T11:20:27;33.17;;;16.75;;
60416;SDS011;46263;44.726;10.396;2024-01-30T11:22:58;33.25;;;17.10;;
60416;SDS011;46263;44.726;10.396;2024-01-30T11:25:24;35.97;;;17.58;;
60416;SDS011;46263;44.726;10.396;2024-01-30T11:27:52;37.65;;;17.95;;
60416;SDS011;46263;44.726;10.396;2024-01-30T11:30:31;28.30;;;15.40;;
60416;SDS011;46263;44.726;10.396;2024-01-30T11:33:00;34.05;;;16.80;;
60416;SDS011;46263;44.726;10.396;2024-01-30T11:35:34;33.92;;;16.65;;
60416;SDS011;46263;44.726;10.396;2024-01-30T11:38:03;31.08;;;15.45;;
60416;SDS011;46263;44.726;10.396;2024-01-30T11:40:30;33.35;;;17.83;;
60416;SDS011;46263;44.726;10.396;2024-01-30T11:42:56;33.78;;;17.30;;
60416;SDS011;46263;44.726;10.396;2024-01-30T11:45:23;37.55;;;17.40;;
60416;SDS011;46263;44.726;10.396;2024-01-30T11:47:49;34.15;;;16.20;;
60416;SDS011;46263;44.726;10.396;2024-01-30T11:50:15;32.35;;;17.45;;
60416;SDS011;46263;44.726;10.396;2024-01-30T11:52:41;39.17;;;19.58;;
60416;SDS011;46263;44.726;10.396;2024-01-30T11:55:08;40.08;;;16.70;;
60416;SDS011;46263;44.726;10.396;2024-01-30T11:57:34;34.72;;;18.20;;
60416;SDS011;46263;44.726;10.396;2024-01-30T12:00:02;31.92;;;16.75;;
60416;SDS011;46263;44.726;10.396;2024-01-30T12:02:38;39.22;;;18.40;;
60416;SDS011;46263;44.726;10.396;2024-01-30T12:05:08;42.78;;;19.58;;
60416;SDS011;46263;44.726;10.396;2024-01-30T12:07:34;33.80;;;17.27;;
60416;SDS011;46263;44.726;10.396;2024-01-30T12:10:00;35.92;;;18.48;;
60416;SDS011;46263;44.726;10.396;2024-01-30T12:12:26;33.75;;;17.33;;
60416;SDS011;46263;44.726;10.396;2024-01-30T12:14:52;42.00;;;18.70;;
60416;SDS011;46263;44.726;10.396;2024-01-30T12:17:31;35.53;;;18.42;;
60416;SDS011;46263;44.726;10.396;2024-01-30T12:22:36;41.05;;;18.38;;
60416;SDS011;46263;44.726;10.396;2024-01-30T12:25:08;40.25;;;18.77;;
60416;SDS011;46263;44.726;10.396;2024-01-30T12:27:38;36.00;;;19.27;;
60416;SDS011;46263;44.726;10.396;2024-01-30T12:30:14;38.92;;;18.55;;
60416;SDS011;46263;44.726;10.396;2024-01-30T12:32:40;37.88;;;18.38;;
60416;SDS011;46263;44.726;10.396;2024-01-30T12:35:09;36.35;;;17.83;;
60416;SDS011;46263;44.726;10.396;2024-01-30T12:37:35;32.70;;;17.35;;
60416;SDS011;46263;44.726;10.396;2024-01-30T12:40:01;34.67;;;17.70;;
60416;SDS011;46263;44.726;10.396;2024-01-30T12:42:27;31.73;;;16.70;;
60416;SDS011;46263;44.726;10.396;2024-01-30T12:44:52;32.80;;;17.65;;
60416;SDS011;46263;44.726;10.396;2024-01-30T12:47:18;32.38;;;17.38;;
60416;SDS011;46263;44.726;10.396;2024-01-30T12:49:46;33.55;;;17.33;;
60416;SDS011;46263;44.726;10.396;2024-01-30T12:52:12;35.13;;;16.92;;
60416;SDS011;46263;44.726;10.396;2024-01-30T12:54:39;35.50;;;17.30;;
60416;SDS011;46263;44.726;10.396;2024-01-30T12:57:05;31.63;;;16.83;;
60416;SDS011;46263;44.726;10.396;2024-01-30T12:59:31;29.63;;;16.20;;
60416;SDS011;46263;44.726;10.396;2024-01-30T13:01:56;30.10;;;16.10;;
60416;SDS011;46263;44.726;10.396;2024-01-30T13:04:23;32.42;;;15.85;;
60416;SDS011;46263;44.726;10.396;2024-01-30T13:06:48;32.78;;;15.90;;
60416;SDS011;46263;44.726;10.396;2024-01-30T13:09:14;34.33;;;16.17;;
60416;SDS011;46263;44.726;10.396;2024-01-30T13:11:40;32.05;;;17.10;;
60416;SDS011;46263;44.726;10.396;2024-01-30T13:14:05;26.65;;;15.38;;
60416;SDS011;46263;44.726;10.396;2024-01-30T13:16:31;34.47;;;16.42;;
60416;SDS011;46263;44.726;10.396;2024-01-30T13:18:56;28.58;;;17.30;;
60416;SDS011;46263;44.726;10.396;2024-01-30T13:21:22;29.30;;;16.38;;
60416;SDS011;46263;44.726;10.396;2024-01-30T13:23:47;27.70;;;15.77;;
60416;SDS011;46263;44.726;10.396;2024-01-30T13:26:12;35.28;;;17.35;;
60416;SDS011;46263;44.726;10.396;2024-01-30T13:28:38;30.88;;;16.50;;
60416;SDS011;46263;44.726;10.396;2024-01-30T13:31:04;27.15;;;15.70;;
60416;SDS011;46263;44.726;10.396;2024-01-30T13:33:30;32.53;;;17.00;;
60416;SDS011;46263;44.726;10.396;2024-01-30T13:35:55;35.40;;;17.27;;
60416;SDS011;46263;44.726;10.396;2024-01-30T13:38:21;37.72;;;17.60;;
60416;SDS011;46263;44.726;10.396;2024-01-30T13:40:46;37.95;;;17.52;;
60416;SDS011;46263;44.726;10.396;2024-01-30T13:43:12;34.45;;;17.75;;
60416;SDS011;46263;44.726;10.396;2024-01-30T13:45:37;35.58;;;17.67;;
60416;SDS011;46263;44.726;10.396;2024-01-30T13:48:03;31.45;;;16.92;;
60416;SDS011;46263;44.726;10.396;2024-01-30T13:50:28;41.38;;;18.27;;
60416;SDS011;46263;44.726;10.396;2024-01-30T13:52:54;38.88;;;17.70;;
60416;SDS011;46263;44.726;10.396;2024-01-30T13:55:20;34.70;;;18.08;;
60416;SDS011;46263;44.726;10.396;2024-01-30T13:57:45;34.67;;;17.05;;
60416;SDS011;46263;44.726;10.396;2024-01-30T14:00:11;35.80;;;17.92;;
60416;SDS011;46263;44.726;10.396;2024-01-30T14:02:36;34.35;;;18.08;;
60416;SDS011;46263;44.726;10.396;2024-01-30T14:05:02;38.50;;;18.52;;
60416;SDS011;46263;44.726;10.396;2024-01-30T14:07:29;35.47;;;18.23;;
60416;SDS011;46263;44.726;10.396;2024-01-30T14:09:55;34.60;;;17.88;;